sensor_id;sensor_type;location;lat;lon;timestamp;pressure;altitude;pressure_sealevel;temperature;humidity
10688;BME280;5392;42.688;23.298;2023-02-16T00:01:02;57463.53;;;-144.48;100.00
10688;BME280;5392;42.688;23.298;2023-02-16T00:03:30;57478.13;;;-144.48;100.00
10688;BME280;5392;42.688;23.298;2023-02-16T00:05:57;57459.34;;;-144.48;100.00
10688;BME280;5392;42.688;23.298;2023-02-16T00:08:23;57507.34;;;-144.48;100.00
10688;BME280;5392;42.688;23.298;2023-02-16T00:10:50;57492.75;;;-144.48;100.00
10688;BME280;5392;42.688;23.298;2023-02-16T00:13:36;57484.41;;;-144.48;100.00
10688;BME280;5392;42.688;23.298;2023-02-16T00:16:18;57492.75;;;-144.48;100.00
10688;BME280;5392;42.688;23.298;2023-02-16T00:18:46;57484.41;;;-144.48;100.00
10688;BME280;5392;42.688;23.298;2023-02-16T00:21:13;57484.41;;;-144.48;100.00
10688;BME280;5392;42.688;23.298;2023-02-16T00:23:40;57469.78;;;-144.48;100.00
10688;BME280;5392;42.688;23.298;2023-02-16T00:26:19;57507.34;;;-144.48;100.00
10688;BME280;5392;42.688;23.298;2023-02-16T00:28:52;57515.69;;;-144.48;100.00
10688;BME280;5392;42.688;23.298;2023-02-16T00:31:23;57490.66;;;-144.48;100.00
10688;BME280;5392;42.688;23.298;2023-02-16T00:33:53;57469.78;;;-144.48;100.00
10688;BME280;5392;42.688;23.298;2023-02-16T00:36:20;57473.97;;;-144.48;100.00
10688;BME280;5392;42.688;23.298;2023-02-16T00:38:47;57538.66;;;-144.48;100.00
10688;BME280;5392;42.688;23.298;2023-02-16T00:41:19;57496.91;;;-144.48;100.00
10688;BME280;5392;42.688;23.298;2023-02-16T00:44:53;57476.03;;;-144.48;100.00
10688;BME280;5392;42.688;23.298;2023-02-16T00:47:03;57465.59;;;-144.48;100.00
10688;BME280;5392;42.688;23.298;2023-02-16T00:49:34;57526.13;;;-144.48;100.00
10688;BME280;5392;42.688;23.298;2023-02-16T00:52:01;57484.41;;;-144.48;100.00
10688;BME280;5392;42.688;23.298;2023-02-16T00:54:30;57490.66;;;-144.48;100.00
10688;BME280;5392;42.688;23.298;2023-02-16T00:56:57;57484.41;;;-144.48;100.00
10688;BME280;5392;42.688;23.298;2023-02-16T00:59:24;57465.59;;;-144.48;100.00
10688;BME280;5392;42.688;23.298;2023-02-16T01:01:51;57494.81;;;-144.48;100.00
10688;BME280;5392;42.688;23.298;2023-02-16T01:04:20;57492.75;;;-144.48;100.00
10688;BME280;5392;42.688;23.298;2023-02-16T01:06:48;57442.66;;;-144.48;100.00
10688;BME280;5392;42.688;23.298;2023-02-16T01:09:33;57448.91;;;-144.48;100.00
10688;BME280;5392;42.688;23.298;2023-02-16T01:12:20;57484.41;;;-144.48;100.00
10688;BME280;5392;42.688;23.298;2023-02-16T01:14:51;57492.75;;;-144.48;100.00
10688;BME280;5392;42.688;23.298;2023-02-16T01:17:19;57484.41;;;-144.48;100.00
10688;BME280;5392;42.688;23.298;2023-02-16T01:19:46;57503.19;;;-144.48;100.00
10688;BME280;5392;42.688;23.298;2023-02-16T01:22:12;57436.38;;;-144.48;100.00
10688;BME280;5392;42.688;23.298;2023-02-16T01:24:39;57488.56;;;-144.48;100.00
10688;BME280;5392;42.688;23.298;2023-02-16T01:27:10;57484.41;;;-144.48;100.00
10688;BME280;5392;42.688;23.298;2023-02-16T01:29:37;57480.22;;;-144.48;100.00
10688;BME280;5392;42.688;23.298;2023-02-16T01:32:04;57478.13;;;-144.48;100.00
10688;BME280;5392;42.688;23.298;2023-02-16T01:34:31;57515.69;;;-144.48;100.00
10688;BME280;5392;42.688;23.298;2023-02-16T01:36:58;57459.34;;;-144.48;100.00
10688;BME280;5392;42.688;23.298;2023-02-16T01:39:24;57480.22;;;-144.48;100.00
10688;BME280;5392;42.688;23.298;2023-02-16T01:42:08;57471.88;;;-144.48;100.00
10688;BME280;5392;42.688;23.298;2023-02-16T01:44:51;57459.34;;;-144.48;100.00
10688;BME280;5392;42.688;23.298;2023-02-16T01:49:49;57478.13;;;-144.48;100.00
10688;BME280;5392;42.688;23.298;2023-02-16T01:52:33;57473.97;;;-144.48;100.00
10688;BME280;5392;42.688;23.298;2023-02-16T01:55:22;57490.66;;;-144.48;100.00
10688;BME280;5392;42.688;23.298;2023-02-16T01:57:55;57505.25;;;-144.48;100.00
10688;BME280;5392;42.688;23.298;2023-02-16T02:03:27;57467.69;;;-144.48;100.00
10688;BME280;5392;42.688;23.298;2023-02-16T02:06:15;57478.13;;;-144.48;100.00
10688;BME280;5392;42.688;23.298;2023-02-16T02:11:35;57473.97;;;-144.48;100.00
10688;BME280;5392;42.688;23.298;2023-02-16T02:14:14;57480.22;;;-144.48;100.00
10688;BME280;5392;42.688;23.298;2023-02-16T02:16:57;57459.34;;;-144.48;100.00
10688;BME280;5392;42.688;23.298;2023-02-16T02:19:24;57467.69;;;-144.48;100.00
10688;BME280;5392;42.688;23.298;2023-02-16T02:36:28;57478.13;;;-144.48;100.00
10688;BME280;5392;42.688;23.298;2023-02-16T02:41:55;57463.53;;;-144.48;100.00
10688;BME280;5392;42.688;23.298;2023-02-16T02:44:46;57471.88;;;-144.48;100.00
10688;BME280;5392;42.688;23.298;2023-02-16T02:47:14;57478.13;;;-144.48;100.00
10688;BME280;5392;42.688;23.298;2023-02-16T02:49:51;57478.13;;;-144.48;100.00
10688;BME280;5392;42.688;23.298;2023-02-16T02:52:19;57496.91;;;-144.48;100.00
10688;BME280;5392;42.688;23.298;2023-02-16T02:54:48;57467.69;;;-144.48;100.00
10688;BME280;5392;42.688;23.298;2023-02-16T02:57:37;57451.00;;;-144.48;100.00
10688;BME280;5392;42.688;23.298;2023-02-16T03:00:31;57480.22;;;-144.48;100.00
10688;BME280;5392;42.688;23.298;2023-02-16T03:05:52;57473.97;;;-144.48;100.00
10688;BME280;5392;42.688;23.298;2023-02-16T03:08:24;57484.41;;;-144.48;100.00
10688;BME280;5392;42.688;23.298;2023-02-16T03:10:59;57486.47;;;-144.48;100.00
10688;BME280;5392;42.688;23.298;2023-02-16T03:13:50;57488.56;;;-144.48;100.00
10688;BME280;5392;42.688;23.298;2023-02-16T03:16:23;57467.69;;;-144.48;100.00
10688;BME280;5392;42.688;23.298;2023-02-16T03:18:51;57446.81;;;-144.48;100.00
10688;BME280;5392;42.688;23.298;2023-02-16T03:21:37;57480.22;;;-144.48;100.00
10688;BME280;5392;42.688;23.298;2023-02-16T03:24:26;57478.13;;;-144.48;100.00
10688;BME280;5392;42.688;23.298;2023-02-16T03:27:14;57471.88;;;-144.48;100.00
10688;BME280;5392;42.688;23.298;2023-02-16T03:30:04;57448.91;;;-144.48;100.00
10688;BME280;5392;42.688;23.298;2023-02-16T03:32:31;57471.88;;;-144.48;100.00
10688;BME280;5392;42.688;23.298;2023-02-16T03:34:58;57484.41;;;-144.48;100.00
10688;BME280;5392;42.688;23.298;2023-02-16T03:37:25;57446.81;;;-144.48;100.00
10688;BME280;5392;42.688;23.298;2023-02-16T03:39:53;57499.00;;;-144.48;100.00
10688;BME280;5392;42.688;23.298;2023-02-16T03:42:38;57484.41;;;-144.48;100.00
10688;BME280;5392;42.688;23.298;2023-02-16T03:45:05;57473.97;;;-144.48;100.00
10688;BME280;5392;42.688;23.298;2023-02-16T03:47:32;57467.69;;;-144.48;100.00
10688;BME280;5392;42.688;23.298;2023-02-16T03:49:59;57482.31;;;-144.48;100.00
10688;BME280;5392;42.688;23.298;2023-02-16T03:52:25;57519.88;;;-144.48;100.00
10688;BME280;5392;42.688;23.298;2023-02-16T03:54:52;57463.53;;;-144.48;100.00
10688;BME280;5392;42.688;23.298;2023-02-16T03:57:19;57505.25;;;-144.48;100.00
10688;BME280;5392;42.688;23.298;2023-02-16T03:59:45;57476.03;;;-144.48;100.00
10688;BME280;5392;42.688;23.298;2023-02-16T04:02:12;57484.41;;;-144.48;100.00
10688;BME280;5392;42.688;23.298;2023-02-16T04:04:38;57451.00;;;-144.48;100.00
10688;BME280;5392;42.688;23.298;2023-02-16T04:07:05;57494.81;;;-144.48;100.00
10688;BME280;5392;42.688;23.298;2023-02-16T04:09:32;57492.75;;;-144.48;100.00
10688;BME280;5392;42.688;23.298;2023-02-16T04:11:59;57471.88;;;-144.48;100.00
10688;BME280;5392;42.688;23.298;2023-02-16T04:14:44;57459.34;;;-144.48;100.00
10688;BME280;5392;42.688;23.298;2023-02-16T04:17:10;57511.53;;;-144.48;100.00
10688;BME280;5392;42.688;23.298;2023-02-16T04:19:37;57484.41;;;-144.48;100.00
10688;BME280;5392;42.688;23.298;2023-02-16T04:22:03;57476.03;;;-144.48;100.00
10688;BME280;5392;42.688;23.298;2023-02-16T04:24:30;57521.97;;;-144.48;100.00
10688;BME280;5392;42.688;23.298;2023-02-16T04:26:57;57469.78;;;-144.48;100.00
10688;BME280;5392;42.688;23.298;2023-02-16T04:29:23;57496.91;;;-144.48;100.00
10688;BME280;5392;42.688;23.298;2023-02-16T04:31:50;57488.56;;;-144.48;100.00
10688;BME280;5392;42.688;23.298;2023-02-16T04:34:17;57438.47;;;-144.48;100.00
10688;BME280;5392;42.688;23.298;2023-02-16T04:36:44;57488.56;;;-144.48;100.00
10688;BME280;5392;42.688;23.298;2023-02-16T04:39:10;57471.88;;;-144.48;100.00
10688;BME280;5392;42.688;23.298;2023-02-16T04:41:37;57444.72;;;-144.48;100.00
10688;BME280;5392;42.688;23.298;2023-02-16T04:44:04;57461.44;;;-144.48;100.00
10688;BME280;5392;42.688;23.298;2023-02-16T04:46:31;57486.47;;;-144.48;100.00
10688;BME280;5392;42.688;23.298;2023-02-16T04:48:58;57448.91;;;-144.48;100.00
10688;BME280;5392;42.688;23.298;2023-02-16T04:51:24;57471.88;;;-144.48;100.00
10688;BME280;5392;42.688;23.298;2023-02-16T04:53:51;57471.88;;;-144.48;100.00
10688;BME280;5392;42.688;23.298;2023-02-16T04:56:18;57461.44;;;-144.48;100.00
10688;BME280;5392;42.688;23.298;2023-02-16T04:58:44;57480.22;;;-144.48;100.00
10688;BME280;5392;42.688;23.298;2023-02-16T05:01:22;57492.75;;;-144.48;100.00
10688;BME280;5392;42.688;23.298;2023-02-16T05:03:49;57501.09;;;-144.48;100.00
10688;BME280;5392;42.688;23.298;2023-02-16T05:06:16;57484.41;;;-144.48;100.00
10688;BME280;5392;42.688;23.298;2023-02-16T05:08:43;57463.53;;;-144.48;100.00
10688;BME280;5392;42.688;23.298;2023-02-16T05:11:10;57503.19;;;-144.48;100.00
10688;BME280;5392;42.688;23.298;2023-02-16T05:13:57;57492.75;;;-144.48;100.00
10688;BME280;5392;42.688;23.298;2023-02-16T05:16:42;57496.91;;;-144.48;100.00
10688;BME280;5392;42.688;23.298;2023-02-16T05:19:10;57492.75;;;-144.48;100.00
10688;BME280;5392;42.688;23.298;2023-02-16T05:21:36;57484.41;;;-144.48;100.00
10688;BME280;5392;42.688;23.298;2023-02-16T05:24:08;57490.66;;;-144.48;100.00
10688;BME280;5392;42.688;23.298;2023-02-16T05:26:36;57467.69;;;-144.48;100.00
10688;BME280;5392;42.688;23.298;2023-02-16T05:29:04;57490.66;;;-144.48;100.00
10688;BME280;5392;42.688;23.298;2023-02-16T05:31:31;57501.09;;;-144.48;100.00
10688;BME280;5392;42.688;23.298;2023-02-16T05:33:58;57455.16;;;-144.48;100.00
10688;BME280;5392;42.688;23.298;2023-02-16T05:36:25;57484.41;;;-144.48;100.00
10688;BME280;5392;42.688;23.298;2023-02-16T05:38:51;57467.69;;;-144.48;100.00
10688;BME280;5392;42.688;23.298;2023-02-16T05:41:18;57438.47;;;-144.48;100.00
10688;BME280;5392;42.688;23.298;2023-02-16T05:43:56;57476.03;;;-144.48;100.00
10688;BME280;5392;42.688;23.298;2023-02-16T05:46:25;57457.25;;;-144.48;100.00
10688;BME280;5392;42.688;23.298;2023-02-16T05:48:52;57480.22;;;-144.48;100.00
10688;BME280;5392;42.688;23.298;2023-02-16T05:51:20;57484.41;;;-144.48;100.00
10688;BME280;5392;42.688;23.298;2023-02-16T05:53:47;57488.56;;;-144.48;100.00
10688;BME280;5392;42.688;23.298;2023-02-16T05:56:15;57517.78;;;-144.48;100.00
10688;BME280;5392;42.688;23.298;2023-02-16T05:58:42;57501.09;;;-144.48;100.00
10688;BME280;5392;42.688;23.298;2023-02-16T06:01:09;57471.88;;;-144.48;100.00
10688;BME280;5392;42.688;23.298;2023-02-16T06:03:35;57488.56;;;-144.48;100.00
10688;BME280;5392;42.688;23.298;2023-02-16T06:06:03;57505.25;;;-144.48;100.00
10688;BME280;5392;42.688;23.298;2023-02-16T06:08:31;57521.97;;;-144.48;100.00
10688;BME280;5392;42.688;23.298;2023-02-16T06:10:58;57490.66;;;-144.48;100.00
10688;BME280;5392;42.688;23.298;2023-02-16T06:13:25;57503.19;;;-144.48;100.00
10688;BME280;5392;42.688;23.298;2023-02-16T06:15:55;57521.97;;;-144.48;100.00
10688;BME280;5392;42.688;23.298;2023-02-16T06:18:24;57530.31;;;-144.48;100.00
10688;BME280;5392;42.688;23.298;2023-02-16T06:20:50;57451.00;;;-144.48;100.00
10688;BME280;5392;42.688;23.298;2023-02-16T06:23:17;57471.88;;;-144.48;100.00
10688;BME280;5392;42.688;23.298;2023-02-16T06:25:48;57446.81;;;-144.48;100.00
10688;BME280;5392;42.688;23.298;2023-02-16T06:28:16;57490.66;;;-144.48;100.00
10688;BME280;5392;42.688;23.298;2023-02-16T06:30:43;57492.75;;;-144.48;94.89
10688;BME280;5392;42.688;23.298;2023-02-16T06:33:10;57505.25;;;-144.48;92.13
10688;BME280;5392;42.688;23.298;2023-02-16T06:35:37;57538.66;;;-144.48;89.33
10688;BME280;5392;42.688;23.298;2023-02-16T06:38:03;57482.31;;;-144.48;85.99
10688;BME280;5392;42.688;23.298;2023-02-16T06:40:30;57505.25;;;-144.48;84.17
10688;BME280;5392;42.688;23.298;2023-02-16T06:42:57;57528.22;;;-144.48;85.34
10688;BME280;5392;42.688;23.298;2023-02-16T06:45:23;57492.75;;;-144.48;84.24
10688;BME280;5392;42.688;23.298;2023-02-16T06:47:50;57519.88;;;-144.48;86.21
10688;BME280;5392;42.688;23.298;2023-02-16T06:50:16;57513.63;;;-144.48;84.12
10688;BME280;5392;42.688;23.298;2023-02-16T06:52:44;57478.13;;;-144.48;80.28
10688;BME280;5392;42.688;23.298;2023-02-16T06:55:10;57486.47;;;-144.48;75.22
10688;BME280;5392;42.688;23.298;2023-02-16T06:57:38;57530.31;;;-144.48;76.43
10688;BME280;5392;42.688;23.298;2023-02-16T07:00:05;57499.00;;;-144.48;72.38
10688;BME280;5392;42.688;23.298;2023-02-16T07:02:33;57517.78;;;-144.48;71.55
10688;BME280;5392;42.688;23.298;2023-02-16T07:05:01;57524.06;;;-144.48;69.36
10688;BME280;5392;42.688;23.298;2023-02-16T07:07:29;57503.19;;;-144.48;70.52
10688;BME280;5392;42.688;23.298;2023-02-16T07:09:56;57507.34;;;-144.48;68.21
10688;BME280;5392;42.688;23.298;2023-02-16T07:12:23;57492.75;;;-144.48;68.00
10688;BME280;5392;42.688;23.298;2023-02-16T07:14:50;57488.56;;;-144.48;66.51
10688;BME280;5392;42.688;23.298;2023-02-16T07:17:17;57509.44;;;-144.48;68.10
10688;BME280;5392;42.688;23.298;2023-02-16T07:19:43;57476.03;;;-144.48;67.76
10688;BME280;5392;42.688;23.298;2023-02-16T07:22:10;57488.56;;;-144.48;71.62
10688;BME280;5392;42.688;23.298;2023-02-16T07:24:37;57478.13;;;-144.48;68.49
10688;BME280;5392;42.688;23.298;2023-02-16T07:27:04;57511.53;;;-144.48;67.40
10688;BME280;5392;42.688;23.298;2023-02-16T07:29:30;57486.47;;;-144.48;65.27
10688;BME280;5392;42.688;23.298;2023-02-16T07:31:57;57509.44;;;-144.48;65.30
10688;BME280;5392;42.688;23.298;2023-02-16T07:34:24;57484.41;;;-144.48;64.37
10688;BME280;5392;42.688;23.298;2023-02-16T07:36:51;57480.22;;;-144.48;64.89
10688;BME280;5392;42.688;23.298;2023-02-16T07:39:17;57496.91;;;-144.48;65.78
10688;BME280;5392;42.688;23.298;2023-02-16T07:41:44;57480.22;;;-144.48;67.41
10688;BME280;5392;42.688;23.298;2023-02-16T07:44:11;57490.66;;;-144.48;66.06
10688;BME280;5392;42.688;23.298;2023-02-16T07:46:38;57482.31;;;-144.48;67.19
10688;BME280;5392;42.688;23.298;2023-02-16T07:49:04;57507.34;;;-144.48;66.08
10688;BME280;5392;42.688;23.298;2023-02-16T07:51:31;57484.41;;;-144.48;67.35
10688;BME280;5392;42.688;23.298;2023-02-16T07:53:59;57503.19;;;-144.48;68.46
10688;BME280;5392;42.688;23.298;2023-02-16T07:56:28;57505.25;;;-144.48;70.05
10688;BME280;5392;42.688;23.298;2023-02-16T07:58:56;57526.13;;;-144.48;70.70
10688;BME280;5392;42.688;23.298;2023-02-16T08:01:24;57480.22;;;-144.48;71.41
10688;BME280;5392;42.688;23.298;2023-02-16T08:03:51;57496.91;;;-144.48;70.78
10688;BME280;5392;42.688;23.298;2023-02-16T08:06:19;57494.81;;;-144.48;69.59
10688;BME280;5392;42.688;23.298;2023-02-16T08:08:46;57526.13;;;-144.48;71.30
10688;BME280;5392;42.688;23.298;2023-02-16T08:11:16;57501.09;;;-144.48;70.32
10688;BME280;5392;42.688;23.298;2023-02-16T08:13:44;57469.78;;;-144.48;69.52
10688;BME280;5392;42.688;23.298;2023-02-16T08:16:22;57461.44;;;-144.48;71.64
10688;BME280;5392;42.688;23.298;2023-02-16T08:18:50;57455.16;;;-144.48;73.59
10688;BME280;5392;42.688;23.298;2023-02-16T08:21:20;57499.00;;;-144.48;72.71
10688;BME280;5392;42.688;23.298;2023-02-16T08:23:56;57509.44;;;-144.48;72.04
10688;BME280;5392;42.688;23.298;2023-02-16T08:26:26;57513.63;;;-144.48;73.04
10688;BME280;5392;42.688;23.298;2023-02-16T08:28:55;57476.03;;;-144.48;73.75
10688;BME280;5392;42.688;23.298;2023-02-16T08:31:25;57494.81;;;-144.48;75.06
10688;BME280;5392;42.688;23.298;2023-02-16T08:33:54;57496.91;;;-144.48;74.73
10688;BME280;5392;42.688;23.298;2023-02-16T08:36:27;57480.22;;;-144.48;76.19
10688;BME280;5392;42.688;23.298;2023-02-16T08:38:58;57480.22;;;-144.48;77.32
10688;BME280;5392;42.688;23.298;2023-02-16T08:41:35;57457.25;;;-144.48;76.65
10688;BME280;5392;42.688;23.298;2023-02-16T08:44:03;57526.13;;;-144.48;77.02
10688;BME280;5392;42.688;23.298;2023-02-16T08:46:31;57469.78;;;-144.48;77.10
10688;BME280;5392;42.688;23.298;2023-02-16T08:48:59;57501.09;;;-144.48;77.85
10688;BME280;5392;42.688;23.298;2023-02-16T08:51:28;57496.91;;;-144.48;78.24
10688;BME280;5392;42.688;23.298;2023-02-16T08:53:57;57509.44;;;-144.48;80.11
10688;BME280;5392;42.688;23.298;2023-02-16T08:56:23;57526.13;;;-144.48;85.19
10688;BME280;5392;42.688;23.298;2023-02-16T08:58:51;57515.69;;;-144.48;83.19
10688;BME280;5392;42.688;23.298;2023-02-16T09:01:18;57476.03;;;-144.48;85.03
10688;BME280;5392;42.688;23.298;2023-02-16T09:03:45;57455.16;;;-144.48;85.26
10688;BME280;5392;42.688;23.298;2023-02-16T09:06:13;57503.19;;;-144.48;84.63
10688;BME280;5392;42.688;23.298;2023-02-16T09:08:41;57513.63;;;-144.48;84.40
10688;BME280;5392;42.688;23.298;2023-02-16T09:11:11;57461.44;;;-144.48;86.90
10688;BME280;5392;42.688;23.298;2023-02-16T09:13:38;57515.69;;;-144.48;87.55
10688;BME280;5392;42.688;23.298;2023-02-16T09:16:09;57505.25;;;-144.48;85.52
10688;BME280;5392;42.688;23.298;2023-02-16T09:18:36;57482.31;;;-144.48;86.93
10688;BME280;5392;42.688;23.298;2023-02-16T09:21:08;57517.78;;;-144.48;87.92
10688;BME280;5392;42.688;23.298;2023-02-16T09:23:41;57480.22;;;-144.48;85.69
10688;BME280;5392;42.688;23.298;2023-02-16T09:26:10;57509.44;;;-144.48;86.38
10688;BME280;5392;42.688;23.298;2023-02-16T09:28:38;57490.66;;;-144.48;86.79
10688;BME280;5392;42.688;23.298;2023-02-16T09:31:19;57490.66;;;-144.48;85.52
10688;BME280;5392;42.688;23.298;2023-02-16T09:33:52;57476.03;;;-144.48;84.71
10688;BME280;5392;42.688;23.298;2023-02-16T09:36:19;57505.25;;;-144.48;87.11
10688;BME280;5392;42.688;23.298;2023-02-16T09:38:46;57486.47;;;-144.48;84.66
10688;BME280;5392;42.688;23.298;2023-02-16T09:43:57;57532.41;;;-144.48;84.02
10688;BME280;5392;42.688;23.298;2023-02-16T09:46:28;57484.41;;;-144.48;83.40
10688;BME280;5392;42.688;23.298;2023-02-16T09:48:56;57505.25;;;-144.48;81.83
10688;BME280;5392;42.688;23.298;2023-02-16T09:51:28;57496.91;;;-144.48;82.36
10688;BME280;5392;42.688;23.298;2023-02-16T09:56:58;57499.00;;;-144.48;80.42
10688;BME280;5392;42.688;23.298;2023-02-16T10:02:37;57480.22;;;-144.48;78.86
10688;BME280;5392;42.688;23.298;2023-02-16T10:10:25;57480.22;;;-144.48;77.83
10688;BME280;5392;42.688;23.298;2023-02-16T10:13:18;57484.41;;;-144.48;77.00
10688;BME280;5392;42.688;23.298;2023-02-16T10:15:47;57505.25;;;-144.48;76.54
10688;BME280;5392;42.688;23.298;2023-02-16T10:18:29;57509.44;;;-144.48;75.39
10688;BME280;5392;42.688;23.298;2023-02-16T10:20:59;57499.00;;;-144.48;74.55
10688;BME280;5392;42.688;23.298;2023-02-16T10:23:44;57509.44;;;-144.48;75.22
10688;BME280;5392;42.688;23.298;2023-02-16T10:28:50;57463.53;;;-144.48;73.34
10688;BME280;5392;42.688;23.298;2023-02-16T10:42:51;57484.41;;;-144.48;72.94
10688;BME280;5392;42.688;23.298;2023-02-16T10:45:44;57484.41;;;-144.48;71.21
10688;BME280;5392;42.688;23.298;2023-02-16T10:48:17;57509.44;;;-144.48;71.23
10688;BME280;5392;42.688;23.298;2023-02-16T10:50:56;57507.34;;;-144.48;71.17
10688;BME280;5392;42.688;23.298;2023-02-16T10:55:57;57519.88;;;-144.48;71.50
10688;BME280;5392;42.688;23.298;2023-02-16T10:58:38;57521.97;;;-144.48;70.22
10688;BME280;5392;42.688;23.298;2023-02-16T11:01:23;57505.25;;;-144.48;69.68
10688;BME280;5392;42.688;23.298;2023-02-16T11:03:55;57526.13;;;-144.48;69.30
10688;BME280;5392;42.688;23.298;2023-02-16T11:06:23;57486.47;;;-144.48;68.65
10688;BME280;5392;42.688;23.298;2023-02-16T11:08:59;57473.97;;;-144.48;68.31
10688;BME280;5392;42.688;23.298;2023-02-16T11:11:32;57501.09;;;-144.48;68.41
10688;BME280;5392;42.688;23.298;2023-02-16T11:14:06;57478.13;;;-144.48;67.96
10688;BME280;5392;42.688;23.298;2023-02-16T11:16:34;57469.78;;;-144.48;67.62
10688;BME280;5392;42.688;23.298;2023-02-16T11:19:21;57507.34;;;-144.48;67.50
10688;BME280;5392;42.688;23.298;2023-02-16T11:21:53;57476.03;;;-144.48;68.02
10688;BME280;5392;42.688;23.298;2023-02-16T11:24:31;57467.69;;;-144.48;68.28
10688;BME280;5392;42.688;23.298;2023-02-16T11:27:19;57455.16;;;-144.48;67.64
10688;BME280;5392;42.688;23.298;2023-02-16T11:29:46;57499.00;;;-144.48;67.57
10688;BME280;5392;42.688;23.298;2023-02-16T11:32:15;57490.66;;;-144.48;66.57
10688;BME280;5392;42.688;23.298;2023-02-16T11:34:50;57507.34;;;-144.48;65.57
10688;BME280;5392;42.688;23.298;2023-02-16T11:37:26;57503.19;;;-144.48;65.97
10688;BME280;5392;42.688;23.298;2023-02-16T11:42:46;57455.16;;;-144.48;65.85
10688;BME280;5392;42.688;23.298;2023-02-16T11:45:40;57496.91;;;-144.48;66.49
10688;BME280;5392;42.688;23.298;2023-02-16T11:48:10;57505.25;;;-144.48;66.43
10688;BME280;5392;42.688;23.298;2023-02-16T11:50:53;57469.78;;;-144.48;65.88
10688;BME280;5392;42.688;23.298;2023-02-16T11:53:27;57484.41;;;-144.48;65.86
10688;BME280;5392;42.688;23.298;2023-02-16T11:58:39;57484.41;;;-144.48;65.33
10688;BME280;5392;42.688;23.298;2023-02-16T12:01:25;57517.78;;;-144.48;64.97
10688;BME280;5392;42.688;23.298;2023-02-16T12:10:06;57490.66;;;-144.48;65.04
10688;BME280;5392;42.688;23.298;2023-02-16T12:15:40;57532.41;;;-144.48;64.94
10688;BME280;5392;42.688;23.298;2023-02-16T12:18:32;57505.25;;;-144.48;64.91
10688;BME280;5392;42.688;23.298;2023-02-16T12:27:17;57467.69;;;-144.48;64.41
10688;BME280;5392;42.688;23.298;2023-02-16T12:30:02;57484.41;;;-144.48;64.27
10688;BME280;5392;42.688;23.298;2023-02-16T12:41:27;57428.03;;;-144.48;64.55
10688;BME280;5392;42.688;23.298;2023-02-16T12:44:02;57467.69;;;-144.48;63.86
10688;BME280;5392;42.688;23.298;2023-02-16T12:46:37;57476.03;;;-144.48;63.67
10688;BME280;5392;42.688;23.298;2023-02-16T12:51:36;57503.19;;;-144.48;63.90
10688;BME280;5392;42.688;23.298;2023-02-16T12:54:09;57492.75;;;-144.48;64.31
10688;BME280;5392;42.688;23.298;2023-02-16T12:56:51;57465.59;;;-144.48;63.81
10688;BME280;5392;42.688;23.298;2023-02-16T12:59:41;57469.78;;;-144.48;63.82
10688;BME280;5392;42.688;23.298;2023-02-16T13:07:30;57490.66;;;-144.48;63.68
10688;BME280;5392;42.688;23.298;2023-02-16T13:10:23;57496.91;;;-144.48;63.78
10688;BME280;5392;42.688;23.298;2023-02-16T13:13:00;57451.00;;;-144.48;64.20
10688;BME280;5392;42.688;23.298;2023-02-16T13:15:35;57515.69;;;-144.48;63.36
10688;BME280;5392;42.688;23.298;2023-02-16T13:18:17;57482.31;;;-144.48;63.28
10688;BME280;5392;42.688;23.298;2023-02-16T13:20:48;57490.66;;;-144.48;63.41
10688;BME280;5392;42.688;23.298;2023-02-16T13:28:54;57492.75;;;-144.48;63.21
10688;BME280;5392;42.688;23.298;2023-02-16T13:37:19;57465.59;;;-144.48;62.87
10688;BME280;5392;42.688;23.298;2023-02-16T13:42:43;57478.13;;;-144.48;62.79
10688;BME280;5392;42.688;23.298;2023-02-16T13:45:27;57486.47;;;-144.48;62.23
10688;BME280;5392;42.688;23.298;2023-02-16T13:47:56;57492.75;;;-144.48;62.42
10688;BME280;5392;42.688;23.298;2023-02-16T13:50:25;57473.97;;;-144.48;62.49
10688;BME280;5392;42.688;23.298;2023-02-16T13:52:55;57532.41;;;-144.48;62.56
10688;BME280;5392;42.688;23.298;2023-02-16T13:55:31;57496.91;;;-144.48;62.56
10688;BME280;5392;42.688;23.298;2023-02-16T13:58:26;57496.91;;;-144.48;62.47
10688;BME280;5392;42.688;23.298;2023-02-16T14:00:54;57490.66;;;-144.48;62.25
10688;BME280;5392;42.688;23.298;2023-02-16T14:05:51;57501.09;;;-144.48;62.38
10688;BME280;5392;42.688;23.298;2023-02-16T14:08:28;57478.13;;;-144.48;62.22
10688;BME280;5392;42.688;23.298;2023-02-16T14:10:58;57521.97;;;-144.48;62.26
10688;BME280;5392;42.688;23.298;2023-02-16T14:15:57;57448.91;;;-144.48;62.31
10688;BME280;5392;42.688;23.298;2023-02-16T14:18:41;57492.75;;;-144.48;61.83
10688;BME280;5392;42.688;23.298;2023-02-16T14:21:42;57476.03;;;-144.48;61.75
10688;BME280;5392;42.688;23.298;2023-02-16T14:26:52;57469.78;;;-144.48;61.89
10688;BME280;5392;42.688;23.298;2023-02-16T14:30:11;57467.69;;;-144.48;61.92
10688;BME280;5392;42.688;23.298;2023-02-16T14:32:19;57486.47;;;-144.48;62.28
10688;BME280;5392;42.688;23.298;2023-02-16T14:35:07;57505.25;;;-144.48;62.16
10688;BME280;5392;42.688;23.298;2023-02-16T14:37:39;57519.88;;;-144.48;62.31
10688;BME280;5392;42.688;23.298;2023-02-16T14:40:12;57467.69;;;-144.48;62.49
10688;BME280;5392;42.688;23.298;2023-02-16T14:42:47;57469.78;;;-144.48;62.52
10688;BME280;5392;42.688;23.298;2023-02-16T14:51:13;57461.44;;;-144.48;62.61
10688;BME280;5392;42.688;23.298;2023-02-16T14:56:36;57469.78;;;-144.48;62.60
10688;BME280;5392;42.688;23.298;2023-02-16T14:59:27;57465.59;;;-144.48;62.80
10688;BME280;5392;42.688;23.298;2023-02-16T15:01:55;57471.88;;;-144.48;62.71
10688;BME280;5392;42.688;23.298;2023-02-16T15:04:27;57469.78;;;-144.48;62.86
10688;BME280;5392;42.688;23.298;2023-02-16T15:06:59;57501.09;;;-144.48;62.65